Time,TemperatureF,DewpointF,PressureIn,WindDirection,WindDirectionDegrees,WindSpeedMPH,WindSpeedGustMPH,Humidity,HourlyPrecipIn,Conditions,Clouds,dailyrainin,SolarRadiationWatts/m^2,SoftwareType,DateUTC
2013-08-08 00:32:00,37.0,35.0,-100.00,WNW,303,0.0,3.0,92,-99.99,,,0.00,0.000000,,2013-08-08 06:32:00,
2013-08-08 00:43:00,37.0,35.0,-100.00,WNW,303,0.0,3.0,92,-99.99,,,0.00,0.000000,,2013-08-08 06:43:00,
2013-08-08 01:32:00,37.0,35.0,-100.00,West,281,2.0,4.0,93,-99.99,,,0.00,0.000000,,2013-08-08 07:32:00,
2013-08-08 01:43:00,37.0,35.0,-100.00,West,281,2.0,4.0,93,-99.99,,,0.00,0.000000,,2013-08-08 07:43:00,
2013-08-08 01:52:00,36.0,34.0,-100.00,West,280,1.0,3.0,94,-99.99,,,0.00,0.000000,,2013-08-08 07:52:00,
2013-08-08 02:32:00,36.0,34.0,-100.00,West,280,1.0,3.0,94,-99.99,,,0.00,0.000000,,2013-08-08 08:32:00,
2013-08-08 02:43:00,36.0,34.0,-100.00,West,280,1.0,3.0,94,-99.99,,,0.00,0.000000,,2013-08-08 08:43:00,
2013-08-08 02:52:00,35.0,34.0,-100.00,WNW,282,1.0,2.0,95,-99.99,,,0.00,0.000000,,2013-08-08 08:52:00,
2013-08-08 03:32:00,35.0,34.0,-100.00,WNW,282,1.0,2.0,95,-99.99,,,0.00,0.000000,,2013-08-08 09:32:00,
2013-08-08 03:43:00,35.0,34.0,-100.00,WNW,282,1.0,2.0,95,-99.99,,,0.00,0.000000,,2013-08-08 09:43:00,
2013-08-08 03:52:00,35.0,34.0,-100.00,WNW,285,2.0,3.0,96,-99.99,,,0.00,0.000000,,2013-08-08 09:52:00,
2013-08-08 04:32:00,35.0,34.0,-100.00,WNW,285,2.0,3.0,96,-99.99,,,0.00,0.000000,,2013-08-08 10:32:00,
2013-08-08 04:43:00,35.0,34.0,-100.00,WNW,285,2.0,3.0,96,-99.99,,,0.00,0.000000,,2013-08-08 10:43:00,
2013-08-08 04:52:00,36.0,34.0,-100.00,ENE,77,0.0,8.0,94,-99.99,,,0.00,0.000000,,2013-08-08 10:52:00,
2013-08-08 05:11:00,36.0,34.0,-100.00,ENE,77,0.0,8.0,94,-99.99,,,0.00,0.000000,,2013-08-08 11:11:00,
2013-08-08 05:22:00,36.0,34.0,-100.00,ENE,77,0.0,8.0,94,-99.99,,,0.00,0.000000,,2013-08-08 11:22:00,
2013-08-08 05:32:00,36.0,34.0,-100.00,ENE,77,0.0,8.0,94,-99.99,,,0.00,0.000000,,2013-08-08 11:32:00,
2013-08-08 05:43:00,36.0,34.0,-100.00,ENE,77,0.0,8.0,94,-99.99,,,0.00,0.000000,,2013-08-08 11:43:00,
2013-08-08 05:52:00,35.0,34.0,-100.00,West,274,0.0,2.0,96,0.00,,,0.00,0.000000,,2013-08-08 11:52:00,
2013-08-08 06:11:00,35.0,34.0,-100.00,West,274,0.0,2.0,96,0.00,,,0.00,0.000000,,2013-08-08 12:11:00,
2013-08-08 06:21:00,35.0,34.0,-100.00,West,274,0.0,2.0,96,0.00,,,0.00,0.000000,,2013-08-08 12:21:00,
2013-08-08 06:32:00,35.0,34.0,-100.00,West,274,0.0,2.0,96,0.00,,,0.00,0.000000,,2013-08-08 12:32:00,
2013-08-08 06:43:00,35.0,34.0,-100.00,West,274,0.0,2.0,96,0.00,,,0.00,0.000000,,2013-08-08 12:43:00,
2013-08-08 06:52:00,37.0,36.0,-100.00,WNW,286,3.0,3.0,95,0.00,,,0.00,24.000000,,2013-08-08 12:52:00,
2013-08-08 07:11:00,37.0,36.0,-100.00,WNW,286,3.0,3.0,95,0.00,,,0.00,24.000000,,2013-08-08 13:11:00,
2013-08-08 07:22:00,37.0,36.0,-100.00,WNW,286,3.0,3.0,95,0.00,,,0.00,24.000000,,2013-08-08 13:22:00,
2013-08-08 07:32:00,37.0,36.0,-100.00,WNW,286,3.0,3.0,95,0.00,,,0.00,24.000000,,2013-08-08 13:32:00,
2013-08-08 07:43:00,37.0,36.0,-100.00,WNW,286,3.0,3.0,95,0.00,,,0.00,24.000000,,2013-08-08 13:43:00,
2013-08-08 07:52:00,49.0,45.0,-100.00,West,275,0.0,2.0,85,0.00,,,0.00,211.000000,,2013-08-08 13:52:00,
2013-08-08 08:32:00,49.0,45.0,-100.00,West,275,0.0,2.0,85,0.00,,,0.00,211.000000,,2013-08-08 14:32:00,
2013-08-08 08:43:00,49.0,45.0,-100.00,West,275,0.0,2.0,85,0.00,,,0.00,211.000000,,2013-08-08 14:43:00,
2013-08-08 08:52:00,59.0,41.0,-100.00,WNW,284,3.0,5.0,52,0.00,,,0.00,333.000000,,2013-08-08 14:52:00,
2013-08-08 09:11:00,59.0,41.0,-100.00,WNW,284,3.0,5.0,52,0.00,,,0.00,333.000000,,2013-08-08 15:11:00,
2013-08-08 09:22:00,59.0,41.0,-100.00,WNW,284,3.0,5.0,52,0.00,,,0.00,333.000000,,2013-08-08 15:22:00,
2013-08-08 09:32:00,59.0,41.0,-100.00,WNW,284,3.0,5.0,52,0.00,,,0.00,333.000000,,2013-08-08 15:32:00,
2013-08-08 09:43:00,59.0,41.0,-100.00,WNW,284,3.0,5.0,52,0.00,,,0.00,333.000000,,2013-08-08 15:43:00,
2013-08-08 09:52:00,60.0,40.0,-100.00,SE,128,4.0,8.0,47,0.00,,,0.00,512.000000,,2013-08-08 15:52:00,
2013-08-08 10:11:00,60.0,40.0,-100.00,SE,128,4.0,8.0,47,0.00,,,0.00,512.000000,,2013-08-08 16:11:00,
2013-08-08 10:22:00,60.0,40.0,-100.00,SE,128,4.0,8.0,47,0.00,,,0.00,512.000000,,2013-08-08 16:22:00,
2013-08-08 10:32:00,60.0,40.0,-100.00,SE,128,4.0,8.0,47,0.00,,,0.00,512.000000,,2013-08-08 16:32:00,
2013-08-08 10:42:00,60.0,40.0,-100.00,SE,128,4.0,8.0,47,0.00,,,0.00,512.000000,,2013-08-08 16:42:00,
2013-08-08 10:52:00,63.0,36.0,-100.00,SE,135,2.0,9.0,37,0.00,,,-99.99,537.000000,,2013-08-08 16:52:00,
2013-08-08 11:11:00,63.0,36.0,-100.00,SE,135,2.0,9.0,37,0.00,,,-99.99,537.000000,,2013-08-08 17:11:00,
2013-08-08 11:21:00,63.0,36.0,-100.00,SE,135,2.0,9.0,37,0.00,,,-99.99,537.000000,,2013-08-08 17:21:00,
2013-08-08 11:32:00,63.0,36.0,-100.00,SE,135,2.0,9.0,37,0.00,,,-99.99,537.000000,,2013-08-08 17:32:00,
2013-08-08 11:43:00,63.0,36.0,-100.00,SE,135,2.0,9.0,37,0.00,,,-99.99,537.000000,,2013-08-08 17:43:00,
2013-08-08 11:52:00,63.0,37.0,-100.00,East,79,6.0,11.0,38,0.00,,,0.00,539.000000,,2013-08-08 17:52:00,
2013-08-08 12:11:00,63.0,37.0,-100.00,East,79,6.0,11.0,38,0.00,,,0.00,539.000000,,2013-08-08 18:11:00,
2013-08-08 12:22:00,63.0,37.0,-100.00,East,79,6.0,11.0,38,0.00,,,0.00,539.000000,,2013-08-08 18:22:00,
2013-08-08 12:32:00,63.0,37.0,-100.00,East,79,6.0,11.0,38,0.00,,,0.00,539.000000,,2013-08-08 18:32:00,
2013-08-08 12:43:00,63.0,37.0,-100.00,East,79,6.0,11.0,38,0.00,,,0.00,539.000000,,2013-08-08 18:43:00,
2013-08-08 12:52:00,65.0,36.0,-100.00,NE,41,6.0,13.0,34,0.00,,,0.00,868.000000,,2013-08-08 18:52:00,
2013-08-08 13:11:00,65.0,36.0,-100.00,NE,41,6.0,13.0,34,0.00,,,0.00,868.000000,,2013-08-08 19:11:00,
2013-08-08 13:22:00,65.0,36.0,-100.00,NE,41,6.0,13.0,34,0.00,,,0.00,868.000000,,2013-08-08 19:22:00,
2013-08-08 13:32:00,65.0,36.0,-100.00,NE,41,6.0,13.0,34,0.00,,,0.00,868.000000,,2013-08-08 19:32:00,
2013-08-08 13:43:00,65.0,36.0,-100.00,NE,41,6.0,13.0,34,0.00,,,0.00,868.000000,,2013-08-08 19:43:00,
2013-08-08 13:52:00,59.0,34.0,-100.00,WNW,302,10.0,18.0,39,0.00,,,0.00,366.000000,,2013-08-08 19:52:00,
2013-08-08 14:11:00,59.0,34.0,-100.00,WNW,302,10.0,18.0,39,0.00,,,0.00,366.000000,,2013-08-08 20:11:00,
2013-08-08 14:22:00,59.0,34.0,-100.00,WNW,302,10.0,18.0,39,0.00,,,0.00,366.000000,,2013-08-08 20:22:00,
2013-08-08 14:32:00,59.0,34.0,-100.00,WNW,302,10.0,18.0,39,0.00,,,0.00,366.000000,,2013-08-08 20:32:00,
2013-08-08 14:42:00,59.0,34.0,-100.00,WNW,302,10.0,18.0,39,0.00,,,0.00,366.000000,,2013-08-08 20:42:00,
2013-08-08 14:52:00,56.0,38.0,-100.00,ENE,67,6.0,17.0,50,0.00,,,0.00,286.000000,,2013-08-08 20:52:00,
2013-08-08 15:13:00,56.0,38.0,-100.00,ENE,67,6.0,17.0,50,0.00,,,0.00,286.000000,,2013-08-08 21:13:00,
2013-08-08 15:23:00,56.0,38.0,-100.00,ENE,67,6.0,17.0,50,0.00,,,0.00,286.000000,,2013-08-08 21:23:00,
2013-08-08 15:33:00,56.0,38.0,-100.00,ENE,67,6.0,17.0,50,0.00,,,0.00,286.000000,,2013-08-08 21:33:00,
2013-08-08 15:43:00,56.0,38.0,-100.00,ENE,67,6.0,17.0,50,0.00,,,0.00,286.000000,,2013-08-08 21:43:00,
2013-08-08 15:52:00,48.0,43.0,-100.00,SSW,209,4.0,10.0,83,0.03,,,0.03,49.000000,,2013-08-08 21:52:00,
2013-08-08 16:16:00,48.0,43.0,-100.00,SSW,209,4.0,10.0,83,0.03,,,0.03,49.000000,,2013-08-08 22:16:00,
2013-08-08 16:24:00,48.0,43.0,-100.00,SSW,209,4.0,10.0,83,0.03,,,0.03,49.000000,,2013-08-08 22:24:00,
2013-08-08 16:34:00,48.0,43.0,-100.00,SSW,209,4.0,10.0,83,0.03,,,0.03,49.000000,,2013-08-08 22:34:00,
2013-08-08 16:47:00,48.0,43.0,-100.00,SSW,209,4.0,10.0,83,0.03,,,0.03,49.000000,,2013-08-08 22:47:00,
2013-08-08 16:52:00,47.0,44.0,-100.00,East,95,6.0,12.0,89,0.05,,,0.08,91.000000,,2013-08-08 22:52:00,
2013-08-08 17:14:00,47.0,44.0,-100.00,East,95,6.0,12.0,89,0.05,,,0.08,91.000000,,2013-08-08 23:14:00,
2013-08-08 17:23:00,47.0,44.0,-100.00,East,95,6.0,12.0,89,0.05,,,0.08,91.000000,,2013-08-08 23:23:00,
2013-08-08 17:35:00,47.0,44.0,-100.00,East,95,6.0,12.0,89,0.05,,,0.08,91.000000,,2013-08-08 23:35:00,
2013-08-08 17:45:00,47.0,44.0,-100.00,East,95,6.0,12.0,89,0.05,,,0.08,91.000000,,2013-08-08 23:45:00,
2013-08-08 17:52:00,50.0,46.0,-100.00,SSE,156,3.0,8.0,86,0.00,,,0.08,182.000000,,2013-08-08 23:52:00,
2013-08-08 18:14:00,50.0,46.0,-100.00,SSE,156,3.0,8.0,86,0.00,,,0.08,182.000000,,2013-08-09 00:14:00,
2013-08-08 18:24:00,50.0,46.0,-100.00,SSE,156,3.0,8.0,86,0.00,,,0.08,182.000000,,2013-08-09 00:24:00,
2013-08-08 18:34:00,50.0,46.0,-100.00,SSE,156,3.0,8.0,86,0.00,,,0.08,182.000000,,2013-08-09 00:34:00,
2013-08-08 18:45:00,50.0,46.0,-100.00,SSE,156,3.0,8.0,86,0.00,,,0.08,182.000000,,2013-08-09 00:45:00,
2013-08-08 19:24:00,53.0,44.0,-100.00,SSE,160,1.0,8.0,72,0.00,,,0.08,219.000000,,2013-08-09 01:24:00,
2013-08-08 19:34:00,53.0,44.0,-100.00,SSE,160,1.0,8.0,72,0.00,,,0.08,219.000000,,2013-08-09 01:34:00,
2013-08-08 19:45:00,53.0,44.0,-100.00,SSE,160,1.0,8.0,72,0.00,,,0.08,219.000000,,2013-08-09 01:45:00,
2013-08-08 19:52:00,48.0,44.0,-100.00,WSW,256,3.0,7.0,87,0.00,,,0.08,85.000000,,2013-08-09 01:52:00,
2013-08-08 20:13:00,48.0,44.0,-100.00,WSW,256,3.0,7.0,87,0.00,,,0.08,85.000000,,2013-08-09 02:13:00,
2013-08-08 20:24:00,48.0,44.0,-100.00,WSW,256,3.0,7.0,87,0.00,,,0.08,85.000000,,2013-08-09 02:24:00,
2013-08-08 20:36:00,48.0,44.0,-100.00,WSW,256,3.0,7.0,87,0.00,,,0.08,85.000000,,2013-08-09 02:36:00,
2013-08-08 20:52:00,43.0,40.0,-100.00,West,263,4.0,8.0,89,0.00,,,0.08,4.000000,,2013-08-09 02:52:00,
2013-08-08 21:14:00,43.0,40.0,-100.00,West,263,4.0,8.0,89,0.00,,,0.08,4.000000,,2013-08-09 03:14:00,
2013-08-08 21:23:00,43.0,40.0,-100.00,West,263,4.0,8.0,89,0.00,,,0.08,4.000000,,2013-08-09 03:23:00,
2013-08-08 21:34:00,43.0,40.0,-100.00,West,263,4.0,8.0,89,0.00,,,0.08,4.000000,,2013-08-09 03:34:00,
2013-08-08 21:44:00,43.0,40.0,-100.00,West,263,4.0,8.0,89,0.00,,,0.08,4.000000,,2013-08-09 03:44:00,
2013-08-08 21:52:00,42.0,40.0,-100.00,NW,310,0.0,6.0,91,0.00,,,0.08,0.000000,,2013-08-09 03:52:00,
2013-08-08 22:12:00,42.0,40.0,-100.00,NW,310,0.0,6.0,91,0.00,,,0.08,0.000000,,2013-08-09 04:12:00,
2013-08-08 22:22:00,42.0,40.0,-100.00,NW,310,0.0,6.0,91,0.00,,,0.08,0.000000,,2013-08-09 04:22:00,
2013-08-08 22:33:00,42.0,40.0,-100.00,NW,310,0.0,6.0,91,0.00,,,0.08,0.000000,,2013-08-09 04:33:00,
2013-08-08 22:43:00,42.0,40.0,-100.00,NW,310,0.0,6.0,91,0.00,,,0.08,0.000000,,2013-08-09 04:43:00,
2013-08-08 22:52:00,38.0,37.0,-100.00,SSE,167,1.0,7.0,95,0.00,,,0.08,0.000000,,2013-08-09 04:52:00,
2013-08-08 23:11:00,38.0,37.0,-100.00,SSE,167,1.0,7.0,95,0.00,,,0.08,0.000000,,2013-08-09 05:11:00,
2013-08-08 23:22:00,38.0,37.0,-100.00,SSE,167,1.0,7.0,95,0.00,,,0.08,0.000000,,2013-08-09 05:22:00,
2013-08-08 23:32:00,38.0,37.0,-100.00,SSE,167,1.0,7.0,95,0.00,,,0.08,0.000000,,2013-08-09 05:32:00,
2013-08-08 23:43:00,38.0,37.0,-100.00,SSE,167,1.0,7.0,95,0.00,,,0.08,0.000000,,2013-08-09 05:43:00,
2013-08-08 23:52:00,36.0,35.0,-100.00,NE,43,3.0,5.0,97,0.00,,,0.08,0.000000,,2013-08-09 05:52:00,